Time;durP1;ratioP1;P1;durP2;ratioP2;P2;SDS_P1;SDS_P2;PMS_P1;PMS_P2;Temp;Humidity;BMP_temperature;BMP_pressure;BME280_temperature;BME280_humidity;BME280_pressure;Samples;Min_cycle;Max_cycle;Signal;HPM_P1;HPM_P2
2023/05/14 00:01:13;;;;;;;24.50;20.75;;;;;;;;;;5121634;27;20032;-64
2023/05/14 00:03:39;;;;;;;21.98;19.30;;;;;;;;;;5114398;27;20498;-64
2023/05/14 00:06:06;;;;;;;25.65;21.38;;;;;;;;;;5128600;27;20023;-63
2023/05/14 00:08:32;;;;;;;26.00;22.13;;;;;;;;;;5116498;27;20027;-63
2023/05/14 00:10:58;;;;;;;24.00;20.55;;;;;;;;;;5123443;27;20024;-63
2023/05/14 00:13:25;;;;;;;23.67;21.05;;;;;;;;;;5124102;27;20101;-64
2023/05/14 00:15:51;;;;;;;25.85;20.88;;;;;;;;;;5115766;27;20031;-63
2023/05/14 00:18:17;;;;;;;23.15;20.65;;;;;;;;;;5123592;27;20028;-65
2023/05/14 00:20:43;;;;;;;23.63;20.52;;;;;;;;;;5122283;27;20522;-63
2023/05/14 00:23:09;;;;;;;20.73;18.50;;;;;;;;;;5114238;27;20020;-63
2023/05/14 00:25:35;;;;;;;22.85;20.45;;;;;;;;;;5124851;27;20080;-67
2023/05/14 00:28:01;;;;;;;23.80;18.95;;;;;;;;;;5114750;27;20049;-65
2023/05/14 00:30:27;;;;;;;22.25;19.90;;;;;;;;;;5130942;27;20130;-63
2023/05/14 00:32:53;;;;;;;21.73;18.48;;;;;;;;;;5124128;27;20050;-63
2023/05/14 00:35:20;;;;;;;20.58;18.38;;;;;;;;;;5122706;27;20027;-66
2023/05/14 00:37:46;;;;;;;19.75;17.65;;;;;;;;;;5116383;27;20039;-67
2023/05/14 00:40:12;;;;;;;21.73;19.42;;;;;;;;;;5108756;28;20027;-65
2023/05/14 00:42:39;;;;;;;22.70;19.42;;;;;;;;;;5111588;28;20015;-64
2023/05/14 00:45:06;;;;;;;22.17;19.70;;;;;;;;;;5110966;28;20479;-63
2023/05/14 00:47:33;;;;;;;20.98;18.42;;;;;;;;;;5112293;28;20043;-63
2023/05/14 00:49:59;;;;;;;20.58;18.30;;;;;;;;;;5112253;28;20075;-63
2023/05/14 00:52:25;;;;;;;23.10;20.20;;;;;;;;;;5110850;28;20606;-63
2023/05/14 00:54:51;;;;;;;25.55;19.40;;;;;;;;;;5110139;28;20031;-63
2023/05/14 00:57:18;;;;;;;21.70;17.92;;;;;;;;;;5111432;28;20102;-64
2023/05/14 00:59:44;;;;;;;21.30;18.40;;;;;;;;;;5107769;28;20498;-63
2023/05/14 01:02:10;;;;;;;20.58;18.38;;;;;;;;;;5110499;28;20023;-63
2023/05/14 01:04:36;;;;;;;20.65;18.45;;;;;;;;;;5109341;28;20040;-63
2023/05/14 01:07:08;;;;;;;23.10;19.85;;;;;;;;;;5111498;28;20381;-63
2023/05/14 01:09:53;;;;;;;24.33;18.40;;;;;;;;;;5110884;28;20020;-64
2023/05/14 01:12:31;;;;;;;20.58;18.15;;;;;;;;;;5111218;28;20020;-63
2023/05/14 01:15:14;;;;;;;24.67;19.58;;;;;;;;;;5110722;28;20034;-63
2023/05/14 01:17:45;;;;;;;22.77;18.05;;;;;;;;;;5109343;28;20034;-63
2023/05/14 01:20:12;;;;;;;21.48;18.50;;;;;;;;;;5110263;28;20032;-63
2023/05/14 01:22:37;;;;;;;20.75;16.35;;;;;;;;;;5110823;28;20031;-63
2023/05/14 01:25:04;;;;;;;20.80;18.60;;;;;;;;;;5109651;28;20040;-63
2023/05/14 01:27:30;;;;;;;19.45;17.40;;;;;;;;;;5110999;28;20365;-63
2023/05/14 01:30:00;;;;;;;19.80;17.70;;;;;;;;;;5111347;28;20026;-63
2023/05/14 01:32:27;;;;;;;20.38;17.42;;;;;;;;;;5111396;28;20088;-63
2023/05/14 01:34:55;;;;;;;20.95;18.63;;;;;;;;;;5113576;28;20063;-63
2023/05/14 01:37:21;;;;;;;21.45;18.05;;;;;;;;;;5112930;28;20047;-63
2023/05/14 01:39:48;;;;;;;21.10;16.95;;;;;;;;;;5112723;28;20070;-63
2023/05/14 01:42:14;;;;;;;21.80;16.92;;;;;;;;;;5113101;28;20019;-63
2023/05/14 01:44:40;;;;;;;25.45;19.67;;;;;;;;;;5112447;28;20068;-63
2023/05/14 01:47:06;;;;;;;22.80;18.90;;;;;;;;;;5113158;28;20018;-63
2023/05/14 01:49:32;;;;;;;22.75;19.45;;;;;;;;;;5113089;28;20024;-64
2023/05/14 01:51:58;;;;;;;21.40;17.88;;;;;;;;;;5113898;28;20020;-64
2023/05/14 01:54:24;;;;;;;20.73;18.50;;;;;;;;;;5115104;28;20099;-65
2023/05/14 01:56:51;;;;;;;21.38;19.05;;;;;;;;;;5114580;28;20491;-64
2023/05/14 01:59:17;;;;;;;24.73;19.63;;;;;;;;;;5114765;28;20047;-63
2023/05/14 02:01:43;;;;;;;21.55;19.25;;;;;;;;;;5114395;28;20027;-63
2023/05/14 02:04:09;;;;;;;20.45;18.13;;;;;;;;;;5114505;28;20039;-66
2023/05/14 02:06:34;;;;;;;20.67;18.48;;;;;;;;;;5113668;27;20024;-63
2023/05/14 02:09:00;;;;;;;24.20;19.42;;;;;;;;;;5114618;28;20076;-64
2023/05/14 02:11:26;;;;;;;21.40;18.38;;;;;;;;;;5114757;28;20034;-64
2023/05/14 02:13:52;;;;;;;21.65;18.08;;;;;;;;;;5114258;28;20094;-64
2023/05/14 02:16:19;;;;;;;24.17;18.10;;;;;;;;;;5114384;28;20550;-64
2023/05/14 02:18:44;;;;;;;21.80;18.83;;;;;;;;;;5114063;28;20125;-63
2023/05/14 02:21:10;;;;;;;22.25;18.77;;;;;;;;;;5113648;28;20031;-63
2023/05/14 02:23:36;;;;;;;22.77;19.00;;;;;;;;;;5113984;28;20020;-66
2023/05/14 02:26:02;;;;;;;21.27;17.90;;;;;;;;;;5114232;28;20023;-64
2023/05/14 02:28:28;;;;;;;20.27;18.17;;;;;;;;;;5113571;28;20024;-64
2023/05/14 02:31:00;;;;;;;21.60;17.50;;;;;;;;;;5114424;28;20070;-66
2023/05/14 02:33:27;;;;;;;19.75;17.63;;;;;;;;;;5114367;28;20027;-64
2023/05/14 02:35:53;;;;;;;25.73;19.05;;;;;;;;;;5113613;28;20023;-63
2023/05/14 02:38:19;;;;;;;21.63;18.98;;;;;;;;;;5113982;28;20567;-63
2023/05/14 02:40:45;;;;;;;23.70;20.30;;;;;;;;;;5113666;28;20102;-63
2023/05/14 02:43:11;;;;;;;20.40;18.17;;;;;;;;;;5113611;28;20114;-64
2023/05/14 02:45:37;;;;;;;20.17;18.05;;;;;;;;;;5112286;28;20031;-64
2023/05/14 02:48:03;;;;;;;21.50;18.85;;;;;;;;;;5113807;28;20020;-63
2023/05/14 02:50:29;;;;;;;19.27;17.05;;;;;;;;;;5113495;28;20031;-64
2023/05/14 02:52:55;;;;;;;22.27;19.45;;;;;;;;;;5114028;28;20216;-66
2023/05/14 02:55:21;;;;;;;23.23;18.63;;;;;;;;;;5113678;28;20023;-65
2023/05/14 02:57:47;;;;;;;21.88;19.33;;;;;;;;;;5113073;28;20410;-66
2023/05/14 03:00:13;;;;;;;21.10;18.05;;;;;;;;;;5113648;28;20497;-65
2023/05/14 03:02:40;;;;;;;21.05;17.63;;;;;;;;;;5113188;28;20038;-64
2023/05/14 03:05:06;;;;;;;20.92;17.58;;;;;;;;;;5113213;28;20112;-64
2023/05/14 03:07:33;;;;;;;18.90;16.88;;;;;;;;;;5113183;28;20501;-64
2023/05/14 03:09:59;;;;;;;18.85;16.80;;;;;;;;;;5113423;28;20505;-63
2023/05/14 03:12:25;;;;;;;21.95;18.02;;;;;;;;;;5113316;28;20023;-64
2023/05/14 03:14:51;;;;;;;20.10;17.42;;;;;;;;;;5112924;28;20024;-64
2023/05/14 03:17:17;;;;;;;20.77;18.58;;;;;;;;;;5113185;28;20068;-64
2023/05/14 03:19:43;;;;;;;20.30;18.25;;;;;;;;;;5112587;28;20562;-64
2023/05/14 03:22:09;;;;;;;22.10;18.52;;;;;;;;;;5113306;28;20140;-63
2023/05/14 03:24:36;;;;;;;21.15;18.83;;;;;;;;;;5112873;28;20553;-63
2023/05/14 03:27:03;;;;;;;20.63;18.42;;;;;;;;;;5113028;28;20023;-64
2023/05/14 03:29:29;;;;;;;20.63;18.23;;;;;;;;;;5112713;28;20024;-63
2023/05/14 03:31:55;;;;;;;21.20;18.60;;;;;;;;;;5113508;28;20382;-63
2023/05/14 03:34:21;;;;;;;20.20;18.10;;;;;;;;;;5112444;28;20084;-64
2023/05/14 03:36:47;;;;;;;21.52;18.42;;;;;;;;;;5112586;28;20028;-64
2023/05/14 03:39:20;;;;;;;21.55;19.23;;;;;;;;;;5112843;28;20490;-65
2023/05/14 03:41:46;;;;;;;20.70;18.52;;;;;;;;;;5112025;28;20460;-63
2023/05/14 03:44:12;;;;;;;20.30;18.15;;;;;;;;;;5112662;28;20032;-65
2023/05/14 03:46:38;;;;;;;21.80;18.38;;;;;;;;;;5112388;28;20066;-63
2023/05/14 03:49:04;;;;;;;18.95;16.95;;;;;;;;;;5112412;28;20110;-64
2023/05/14 03:51:30;;;;;;;20.95;18.80;;;;;;;;;;5112374;28;20062;-63
2023/05/14 03:53:57;;;;;;;18.98;16.98;;;;;;;;;;5112663;28;20479;-64
2023/05/14 03:56:23;;;;;;;20.83;18.52;;;;;;;;;;5112307;28;20115;-64
2023/05/14 03:58:49;;;;;;;19.85;17.75;;;;;;;;;;5112173;28;20069;-63
2023/05/14 04:01:15;;;;;;;20.23;18.13;;;;;;;;;;5112320;28;20081;-64
2023/05/14 04:03:41;;;;;;;21.98;19.67;;;;;;;;;;5111845;28;20023;-67
2023/05/14 04:06:07;;;;;;;20.08;17.98;;;;;;;;;;5112050;27;20027;-64
2023/05/14 04:08:33;;;;;;;20.73;17.70;;;;;;;;;;5110678;28;20024;-64
2023/05/14 04:10:59;;;;;;;20.85;18.42;;;;;;;;;;5112272;28;20028;-64
2023/05/14 04:13:25;;;;;;;20.45;17.83;;;;;;;;;;5112458;28;20015;-64
2023/05/14 04:15:51;;;;;;;23.63;19.98;;;;;;;;;;5111742;28;20027;-64
2023/05/14 04:18:17;;;;;;;21.70;19.30;;;;;;;;;;5112172;28;20031;-64
2023/05/14 04:20:43;;;;;;;19.70;17.60;;;;;;;;;;5111050;28;20392;-63
2023/05/14 04:23:10;;;;;;;22.13;18.85;;;;;;;;;;5112019;28;20384;-63
2023/05/14 04:25:36;;;;;;;20.63;18.42;;;;;;;;;;5111621;28;20032;-64
2023/05/14 04:28:02;;;;;;;21.42;18.35;;;;;;;;;;5110778;28;20019;-66
2023/05/14 04:30:28;;;;;;;20.17;17.73;;;;;;;;;;5112177;28;20038;-64
2023/05/14 04:32:54;;;;;;;23.33;19.20;;;;;;;;;;5111576;28;20483;-64
2023/05/14 04:35:20;;;;;;;22.00;18.80;;;;;;;;;;5111779;28;20027;-63
2023/05/14 04:37:47;;;;;;;20.55;18.17;;;;;;;;;;5111527;28;20027;-64
2023/05/14 04:40:15;;;;;;;20.58;18.38;;;;;;;;;;5111686;28;20031;-64
2023/05/14 04:42:41;;;;;;;22.35;18.90;;;;;;;;;;5111315;28;20035;-64
2023/05/14 04:45:08;;;;;;;21.25;18.92;;;;;;;;;;5111574;28;20036;-63
2023/05/14 04:47:34;;;;;;;20.60;18.40;;;;;;;;;;5110768;28;20031;-65
2023/05/14 04:50:00;;;;;;;21.70;19.05;;;;;;;;;;5111602;28;20068;-63
2023/05/14 04:52:26;;;;;;;20.80;18.60;;;;;;;;;;5111928;28;20020;-64
2023/05/14 04:54:52;;;;;;;21.92;19.27;;;;;;;;;;5111377;28;20099;-63
2023/05/14 04:57:18;;;;;;;23.63;21.08;;;;;;;;;;5111463;28;20028;-64
2023/05/14 04:59:44;;;;;;;21.00;18.10;;;;;;;;;;5111261;28;20028;-65
2023/05/14 05:02:10;;;;;;;20.95;18.65;;;;;;;;;;5110929;28;20024;-64
2023/05/14 05:04:36;;;;;;;22.05;19.10;;;;;;;;;;5111160;28;20510;-66
2023/05/14 05:07:02;;;;;;;20.70;18.17;;;;;;;;;;5111495;28;20081;-63
2023/05/14 05:09:28;;;;;;;23.20;20.75;;;;;;;;;;5113753;28;20035;-63
2023/05/14 05:11:54;;;;;;;22.65;20.30;;;;;;;;;;5115909;28;20472;-63
2023/05/14 05:14:20;;;;;;;22.13;18.83;;;;;;;;;;5115667;27;20023;-64
2023/05/14 05:16:46;;;;;;;23.05;20.65;;;;;;;;;;5114655;28;20074;-63
2023/05/14 05:19:12;;;;;;;26.88;20.50;;;;;;;;;;5115525;28;20057;-63
2023/05/14 05:21:39;;;;;;;24.10;20.67;;;;;;;;;;5114681;28;20032;-64
2023/05/14 05:24:05;;;;;;;22.13;19.80;;;;;;;;;;5115225;28;20045;-63
2023/05/14 05:26:31;;;;;;;24.10;21.50;;;;;;;;;;5115131;28;20066;-63
2023/05/14 05:28:57;;;;;;;21.92;19.58;;;;;;;;;;5115633;28;20059;-63
2023/05/14 05:31:23;;;;;;;22.30;20.05;;;;;;;;;;5115584;28;20065;-67
2023/05/14 05:33:49;;;;;;;20.08;17.77;;;;;;;;;;5115005;28;20098;-63
2023/05/14 05:36:15;;;;;;;23.02;19.30;;;;;;;;;;5114500;28;20102;-64
2023/05/14 05:38:41;;;;;;;19.05;17.15;;;;;;;;;;5114978;28;20056;-67
2023/05/14 05:41:07;;;;;;;25.58;22.25;;;;;;;;;;5114913;28;20020;-64
2023/05/14 05:43:33;;;;;;;21.35;19.10;;;;;;;;;;5114862;27;20032;-64
2023/05/14 05:46:00;;;;;;;23.98;21.48;;;;;;;;;;5114952;28;20039;-63
2023/05/14 05:48:26;;;;;;;21.25;19.00;;;;;;;;;;5115324;28;20020;-63
2023/05/14 05:50:52;;;;;;;21.27;18.88;;;;;;;;;;5113649;27;20024;-63
2023/05/14 05:53:18;;;;;;;24.05;21.45;;;;;;;;;;5114835;28;20397;-63
2023/05/14 05:55:44;;;;;;;22.75;20.35;;;;;;;;;;5114180;28;20099;-64
2023/05/14 05:58:10;;;;;;;22.38;19.95;;;;;;;;;;5114902;28;20151;-64
2023/05/14 06:00:36;;;;;;;19.35;17.35;;;;;;;;;;5114417;28;20485;-64
2023/05/14 06:03:02;;;;;;;21.15;19.05;;;;;;;;;;5114367;28;20036;-63
2023/05/14 06:05:28;;;;;;;22.85;20.40;;;;;;;;;;5114529;28;20391;-64
2023/05/14 06:07:54;;;;;;;21.33;19.10;;;;;;;;;;5115046;28;20024;-63
2023/05/14 06:10:20;;;;;;;21.48;19.23;;;;;;;;;;5114641;28;20024;-63
2023/05/14 06:12:46;;;;;;;23.13;20.63;;;;;;;;;;5114602;28;20058;-63
2023/05/14 06:15:12;;;;;;;21.65;19.35;;;;;;;;;;5114710;28;20043;-63
2023/05/14 06:17:38;;;;;;;20.60;18.40;;;;;;;;;;5113839;27;20487;-63
2023/05/14 06:20:06;;;;;;;20.67;18.45;;;;;;;;;;5114275;28;20034;-63
2023/05/14 06:22:32;;;;;;;25.33;22.13;;;;;;;;;;5114214;28;20038;-63
2023/05/14 06:24:58;;;;;;;28.20;24.45;;;;;;;;;;5114210;28;20078;-64
2023/05/14 06:27:24;;;;;;;21.35;19.05;;;;;;;;;;5114204;28;20024;-63
2023/05/14 06:29:50;;;;;;;20.63;18.23;;;;;;;;;;5114103;28;20539;-63
2023/05/14 06:32:16;;;;;;;20.05;17.73;;;;;;;;;;5114259;28;20055;-63
2023/05/14 06:34:42;;;;;;;18.92;17.00;;;;;;;;;;5112852;28;20069;-63
2023/05/14 06:37:09;;;;;;;21.90;19.30;;;;;;;;;;5114209;28;20528;-63
2023/05/14 06:39:35;;;;;;;19.83;17.70;;;;;;;;;;5113770;28;20396;-63
2023/05/14 06:42:01;;;;;;;20.15;17.83;;;;;;;;;;5114095;27;20479;-63
2023/05/14 06:44:28;;;;;;;21.60;18.73;;;;;;;;;;5113870;28;20038;-63
2023/05/14 06:46:54;;;;;;;19.45;17.35;;;;;;;;;;5114385;27;20028;-63
2023/05/14 06:49:20;;;;;;;20.48;18.25;;;;;;;;;;5113933;28;20047;-63
2023/05/14 06:51:46;;;;;;;20.42;17.13;;;;;;;;;;5113503;28;20024;-63
2023/05/14 06:54:12;;;;;;;18.80;16.80;;;;;;;;;;5112589;28;20088;-65
2023/05/14 06:56:38;;;;;;;19.20;17.20;;;;;;;;;;5113574;28;20024;-63
2023/05/14 06:59:04;;;;;;;17.73;15.85;;;;;;;;;;5113274;27;20027;-63
2023/05/14 07:01:30;;;;;;;19.73;17.63;;;;;;;;;;5113523;28;20024;-63
2023/05/14 07:03:56;;;;;;;22.23;17.60;;;;;;;;;;5113517;28;20031;-64
2023/05/14 07:06:22;;;;;;;19.38;16.67;;;;;;;;;;5113404;27;20035;-64
2023/05/14 07:08:48;;;;;;;20.65;17.33;;;;;;;;;;5113284;28;20023;-63
2023/05/14 07:11:15;;;;;;;19.42;16.30;;;;;;;;;;5113628;28;20032;-64
2023/05/14 07:13:41;;;;;;;16.83;15.05;;;;;;;;;;5113277;28;20046;-63
2023/05/14 07:16:10;;;;;;;18.80;16.88;;;;;;;;;;5113416;28;20440;-64
2023/05/14 07:18:36;;;;;;;20.88;17.48;;;;;;;;;;5112734;28;20023;-64
2023/05/14 07:21:05;;;;;;;17.75;15.25;;;;;;;;;;5112990;27;20083;-63
2023/05/14 07:23:31;;;;;;;18.10;16.13;;;;;;;;;;5113166;28;20028;-63
2023/05/14 07:25:57;;;;;;;18.38;14.80;;;;;;;;;;5113117;28;20046;-63
2023/05/14 07:28:23;;;;;;;18.15;15.23;;;;;;;;;;5113149;28;20016;-64
2023/05/14 07:30:49;;;;;;;16.60;14.85;;;;;;;;;;5112728;28;20031;-64
2023/05/14 07:33:15;;;;;;;16.88;15.15;;;;;;;;;;5112544;28;20456;-64
2023/05/14 07:35:41;;;;;;;20.10;15.77;;;;;;;;;;5112483;28;20035;-64
2023/05/14 07:38:07;;;;;;;18.17;15.00;;;;;;;;;;5112829;28;20024;-63
2023/05/14 07:40:33;;;;;;;17.10;15.30;;;;;;;;;;5112626;28;20399;-64
2023/05/14 07:42:59;;;;;;;18.55;16.50;;;;;;;;;;5112895;28;20027;-65
2023/05/14 07:45:25;;;;;;;17.88;15.93;;;;;;;;;;5113099;28;20440;-63
2023/05/14 07:47:51;;;;;;;21.90;18.38;;;;;;;;;;5111848;28;20030;-66
2023/05/14 07:50:17;;;;;;;18.33;16.42;;;;;;;;;;5112707;28;20039;-63
2023/05/14 07:52:44;;;;;;;18.05;16.10;;;;;;;;;;5112462;28;20020;-64
2023/05/14 07:55:10;;;;;;;18.88;16.38;;;;;;;;;;5112648;28;20023;-64
2023/05/14 07:57:36;;;;;;;17.73;15.80;;;;;;;;;;5111929;28;20030;-66
2023/05/14 08:00:02;;;;;;;19.02;16.30;;;;;;;;;;5112466;28;20028;-66
2023/05/14 08:02:28;;;;;;;17.50;15.07;;;;;;;;;;5111489;28;20023;-63
2023/05/14 08:04:54;;;;;;;17.77;14.82;;;;;;;;;;5112538;28;20047;-65
2023/05/14 08:07:20;;;;;;;19.08;17.05;;;;;;;;;;5112345;28;20020;-63
2023/05/14 08:09:46;;;;;;;17.52;15.15;;;;;;;;;;5112145;28;20035;-66
2023/05/14 08:12:13;;;;;;;17.88;16.08;;;;;;;;;;5112239;28;20024;-64
2023/05/14 08:14:39;;;;;;;19.92;15.35;;;;;;;;;;5112508;28;20028;-63
2023/05/14 08:17:05;;;;;;;16.55;14.82;;;;;;;;;;5111167;28;20368;-63
2023/05/14 08:19:31;;;;;;;17.38;15.57;;;;;;;;;;5111743;28;20044;-63
2023/05/14 08:21:57;;;;;;;17.33;15.45;;;;;;;;;;5112335;27;20027;-66
2023/05/14 08:24:23;;;;;;;19.50;15.93;;;;;;;;;;5112202;28;20442;-65
2023/05/14 08:26:49;;;;;;;17.45;15.23;;;;;;;;;;5111890;28;20028;-63
2023/05/14 08:29:15;;;;;;;18.33;16.52;;;;;;;;;;5112065;28;20168;-63
2023/05/14 08:31:41;;;;;;;17.27;15.55;;;;;;;;;;5110992;28;20091;-63
2023/05/14 08:34:07;;;;;;;17.58;15.75;;;;;;;;;;5111822;28;20103;-63
2023/05/14 08:36:33;;;;;;;17.63;15.75;;;;;;;;;;5111818;28;20447;-63
2023/05/14 08:38:59;;;;;;;17.73;15.68;;;;;;;;;;5111767;28;20066;-63
2023/05/14 08:41:25;;;;;;;18.38;16.17;;;;;;;;;;5112068;28;20015;-64
2023/05/14 08:44:00;;;;;;;16.73;15.05;;;;;;;;;;5110545;28;20099;-63
2023/05/14 08:46:29;;;;;;;20.15;17.15;;;;;;;;;;5112125;28;20027;-64
2023/05/14 08:49:22;;;;;;;16.55;13.77;;;;;;;;;;5111920;28;20027;-64
2023/05/14 08:51:48;;;;;;;16.95;15.18;;;;;;;;;;5107218;28;20439;-64
2023/05/14 08:54:17;;;;;;;18.58;15.60;;;;;;;;;;5111154;28;20103;-64
2023/05/14 08:56:46;;;;;;;18.15;16.25;;;;;;;;;;5110836;28;20024;-64
2023/05/14 08:59:12;;;;;;;19.55;16.30;;;;;;;;;;5111471;28;20031;-65
2023/05/14 09:01:39;;;;;;;18.67;16.70;;;;;;;;;;5110469;28;20465;-67
2023/05/14 09:04:07;;;;;;;19.08;16.50;;;;;;;;;;5110824;28;20106;-64
2023/05/14 09:06:36;;;;;;;17.80;15.95;;;;;;;;;;5110478;28;20077;-63
2023/05/14 09:09:03;;;;;;;18.80;16.90;;;;;;;;;;5110162;28;20024;-63
2023/05/14 09:11:29;;;;;;;17.23;15.52;;;;;;;;;;5110309;28;20103;-68
2023/05/14 09:13:55;;;;;;;18.48;15.98;;;;;;;;;;5111577;28;20067;-66
2023/05/14 09:16:21;;;;;;;19.05;17.08;;;;;;;;;;5111484;28;20122;-62
2023/05/14 09:18:47;;;;;;;18.42;16.52;;;;;;;;;;5111279;28;20482;-62
2023/05/14 09:21:14;;;;;;;19.13;16.00;;;;;;;;;;5110861;28;20084;-62
2023/05/14 09:23:44;;;;;;;20.55;16.02;;;;;;;;;;5111193;28;20093;-66
2023/05/14 09:26:10;;;;;;;20.27;14.95;;;;;;;;;;5111280;28;20442;-63
2023/05/14 09:28:40;;;;;;;16.65;14.95;;;;;;;;;;5110396;28;20106;-65
2023/05/14 09:31:06;;;;;;;21.77;17.20;;;;;;;;;;5100014;28;20031;-64
2023/05/14 09:33:32;;;;;;;17.77;15.43;;;;;;;;;;5111011;28;20012;-64
2023/05/14 09:35:59;;;;;;;17.00;15.27;;;;;;;;;;5111307;28;20031;-64
2023/05/14 09:38:29;;;;;;;17.70;13.95;;;;;;;;;;5111229;28;20380;-63
2023/05/14 09:40:55;;;;;;;15.18;13.35;;;;;;;;;;5111267;28;20487;-67
2023/05/14 09:43:21;;;;;;;18.52;13.93;;;;;;;;;;5110843;28;20094;-64
2023/05/14 09:45:47;;;;;;;17.38;14.38;;;;;;;;;;5109217;28;20043;-65
2023/05/14 09:48:13;;;;;;;17.50;14.38;;;;;;;;;;5111014;28;20020;-64
2023/05/14 09:50:43;;;;;;;16.33;14.63;;;;;;;;;;5110850;28;20072;-65
2023/05/14 09:53:09;;;;;;;17.08;14.20;;;;;;;;;;5110901;28;20024;-64
2023/05/14 09:55:36;;;;;;;18.67;13.15;;;;;;;;;;5112999;28;20468;-64
2023/05/14 09:58:02;;;;;;;14.38;12.23;;;;;;;;;;5114676;28;20032;-64
2023/05/14 10:00:29;;;;;;;15.43;13.52;;;;;;;;;;5114743;28;20136;-61
2023/05/14 10:02:57;;;;;;;14.18;11.85;;;;;;;;;;5115123;28;20028;-62
2023/05/14 10:05:23;;;;;;;14.93;12.30;;;;;;;;;;5114743;28;20403;-63
2023/05/14 10:07:51;;;;;;;13.65;12.00;;;;;;;;;;5114152;28;20064;-65
2023/05/14 10:10:20;;;;;;;13.90;12.43;;;;;;;;;;5114714;28;20460;-63
2023/05/14 10:12:56;;;;;;;15.07;11.45;;;;;;;;;;5113185;28;20024;-66
2023/05/14 10:15:26;;;;;;;16.05;14.35;;;;;;;;;;5114155;28;20028;-64
2023/05/14 10:17:55;;;;;;;13.18;11.82;;;;;;;;;;5113188;28;20552;-63
2023/05/14 10:20:22;;;;;;;16.02;13.05;;;;;;;;;;5113950;28;20047;-65
2023/05/14 10:22:48;;;;;;;16.95;13.48;;;;;;;;;;5114142;28;20051;-65
2023/05/14 10:25:14;;;;;;;15.38;13.80;;;;;;;;;;5114144;28;20481;-63
2023/05/14 10:27:41;;;;;;;14.90;12.68;;;;;;;;;;5113536;28;20525;-64
2023/05/14 10:30:11;;;;;;;15.82;14.18;;;;;;;;;;5114183;27;20110;-66
2023/05/14 10:32:37;;;;;;;14.73;12.80;;;;;;;;;;5112833;28;20078;-64
2023/05/14 10:35:14;;;;;;;14.57;13.07;;;;;;;;;;5113793;28;20491;-65
2023/05/14 10:37:40;;;;;;;15.25;12.07;;;;;;;;;;5113641;28;20020;-63
2023/05/14 10:40:07;;;;;;;17.80;13.88;;;;;;;;;;5114113;28;20073;-65
2023/05/14 10:42:34;;;;;;;16.83;13.00;;;;;;;;;;5112489;27;20028;-67
2023/05/14 10:45:01;;;;;;;14.45;12.60;;;;;;;;;;5113535;28;20411;-64
2023/05/14 10:47:28;;;;;;;18.63;13.52;;;;;;;;;;5114085;28;20016;-65
2023/05/14 10:49:55;;;;;;;17.50;13.05;;;;;;;;;;5113685;28;20031;-64
2023/05/14 10:52:21;;;;;;;15.40;12.25;;;;;;;;;;5113889;28;20023;-64
2023/05/14 10:54:53;;;;;;;15.77;12.40;;;;;;;;;;5113697;28;20391;-63
2023/05/14 10:57:20;;;;;;;13.35;11.95;;;;;;;;;;5113858;28;20016;-64
2023/05/14 10:59:47;;;;;;;14.57;11.75;;;;;;;;;;5113296;28;20038;-67
2023/05/14 11:02:18;;;;;;;15.25;11.75;;;;;;;;;;5113743;28;20063;-65
2023/05/14 11:04:51;;;;;;;15.15;11.80;;;;;;;;;;5113008;28;20036;-65
2023/05/14 11:07:18;;;;;;;14.13;11.10;;;;;;;;;;5112593;28;20102;-64
2023/05/14 11:09:46;;;;;;;15.55;11.48;;;;;;;;;;5111782;28;20098;-65
2023/05/14 11:12:12;;;;;;;17.42;13.00;;;;;;;;;;5113232;28;20059;-65
2023/05/14 11:14:39;;;;;;;15.30;12.05;;;;;;;;;;5111554;28;20032;-63
2023/05/14 11:17:05;;;;;;;15.38;11.57;;;;;;;;;;5113498;28;20015;-64
2023/05/14 11:19:31;;;;;;;14.93;12.13;;;;;;;;;;5112723;28;20107;-66
2023/05/14 11:21:57;;;;;;;15.73;12.40;;;;;;;;;;5113384;28;20122;-64
2023/05/14 11:24:23;;;;;;;17.02;11.65;;;;;;;;;;5112531;28;20092;-65
2023/05/14 11:26:49;;;;;;;20.90;13.05;;;;;;;;;;5112345;28;20027;-63
2023/05/14 11:29:15;;;;;;;20.67;11.75;;;;;;;;;;5112320;28;20032;-64
2023/05/14 11:31:41;;;;;;;17.77;12.50;;;;;;;;;;5111802;28;20038;-67
2023/05/14 11:34:07;;;;;;;13.65;11.40;;;;;;;;;;5113076;28;20073;-64
2023/05/14 11:36:35;;;;;;;15.43;12.00;;;;;;;;;;5112718;28;20065;-64
2023/05/14 11:39:01;;;;;;;15.88;12.48;;;;;;;;;;5112729;28;20119;-63
2023/05/14 11:41:29;;;;;;;14.45;12.02;;;;;;;;;;5113088;28;20091;-65
2023/05/14 11:43:56;;;;;;;17.63;15.68;;;;;;;;;;5112908;28;20031;-63
2023/05/14 11:46:22;;;;;;;17.60;15.65;;;;;;;;;;5112755;28;20484;-65
2023/05/14 11:48:48;;;;;;;18.30;16.30;;;;;;;;;;5112502;28;20486;-64
2023/05/14 11:51:14;;;;;;;17.23;15.13;;;;;;;;;;5112665;28;20520;-64
2023/05/14 11:53:41;;;;;;;19.73;14.25;;;;;;;;;;5112201;28;20019;-64
2023/05/14 11:56:07;;;;;;;15.88;12.93;;;;;;;;;;5112436;28;20077;-64
2023/05/14 11:58:33;;;;;;;15.77;12.98;;;;;;;;;;5112047;28;20027;-64
2023/05/14 12:00:59;;;;;;;16.75;13.18;;;;;;;;;;5112238;28;20046;-65
2023/05/14 12:03:28;;;;;;;14.80;12.60;;;;;;;;;;5112790;28;20409;-65
2023/05/14 12:05:54;;;;;;;14.05;12.52;;;;;;;;;;5112396;28;20046;-64
2023/05/14 12:08:21;;;;;;;16.27;12.35;;;;;;;;;;5112276;28;20443;-64
2023/05/14 12:10:47;;;;;;;15.50;13.43;;;;;;;;;;5111747;28;20034;-64
2023/05/14 12:13:17;;;;;;;16.48;13.25;;;;;;;;;;5111617;28;20506;-64
2023/05/14 12:16:01;;;;;;;14.57;13.07;;;;;;;;;;5111882;28;20016;-64
2023/05/14 12:18:28;;;;;;;16.05;13.15;;;;;;;;;;5112443;28;20019;-64
2023/05/14 12:20:54;;;;;;;16.17;13.57;;;;;;;;;;5112463;28;20532;-67
2023/05/14 12:23:27;;;;;;;15.93;12.48;;;;;;;;;;5111461;28;20024;-68
2023/05/14 12:25:53;;;;;;;17.23;15.02;;;;;;;;;;5111890;28;20080;-67
2023/05/14 12:28:19;;;;;;;17.73;13.77;;;;;;;;;;5111917;28;20028;-65
2023/05/14 12:30:46;;;;;;;15.70;13.23;;;;;;;;;;5111675;28;20038;-68
2023/05/14 12:33:13;;;;;;;16.05;14.43;;;;;;;;;;5111921;28;20487;-66
2023/05/14 12:35:39;;;;;;;19.42;14.30;;;;;;;;;;5110252;27;20037;-67
2023/05/14 12:38:05;;;;;;;15.50;13.90;;;;;;;;;;5109975;27;21654;-66
2023/05/14 12:40:31;;;;;;;16.45;13.75;;;;;;;;;;5112033;27;20099;-68
2023/05/14 12:42:57;;;;;;;17.20;15.45;;;;;;;;;;5115683;27;20402;-62
2023/05/14 12:45:23;;;;;;;17.88;15.65;;;;;;;;;;5118334;27;20044;-62
2023/05/14 12:47:50;;;;;;;19.20;16.38;;;;;;;;;;5128213;27;20019;-65
2023/05/14 12:50:16;;;;;;;20.70;15.40;;;;;;;;;;5114015;27;20030;-67
2023/05/14 12:52:42;;;;;;;19.92;15.32;;;;;;;;;;5113792;27;20403;-64
2023/05/14 12:55:08;;;;;;;20.17;16.75;;;;;;;;;;5116944;28;20064;-67
2023/05/14 12:57:34;;;;;;;23.33;19.15;;;;;;;;;;5114014;27;20028;-66
2023/05/14 13:00:00;;;;;;;25.58;17.17;;;;;;;;;;5109716;28;20027;-62
2023/05/14 13:02:26;;;;;;;23.20;18.50;;;;;;;;;;5113232;28;20020;-64
2023/05/14 13:04:52;;;;;;;21.30;19.20;;;;;;;;;;5111813;28;20042;-62
2023/05/14 13:07:18;;;;;;;21.38;19.08;;;;;;;;;;5116639;28;20450;-65
2023/05/14 13:09:44;;;;;;;25.98;20.55;;;;;;;;;;5123028;28;20035;-69
2023/05/14 13:12:10;;;;;;;25.23;19.15;;;;;;;;;;5116880;28;20068;-67
2023/05/14 13:14:36;;;;;;;23.85;21.33;;;;;;;;;;5104670;28;20017;-62
2023/05/14 13:17:02;;;;;;;23.20;20.33;;;;;;;;;;5098512;28;20043;-62
2023/05/14 13:19:28;;;;;;;21.48;19.20;;;;;;;;;;5109811;28;20488;-62
2023/05/14 13:21:54;;;;;;;24.65;20.48;;;;;;;;;;5110605;28;20035;-69
2023/05/14 13:24:20;;;;;;;23.42;20.30;;;;;;;;;;5109054;28;20088;-62
2023/05/14 13:26:46;;;;;;;22.77;20.48;;;;;;;;;;5113725;28;20073;-62
2023/05/14 13:29:12;;;;;;;24.08;21.67;;;;;;;;;;5122040;27;20023;-69
2023/05/14 13:31:38;;;;;;;23.55;21.15;;;;;;;;;;5115187;27;20027;-62
2023/05/14 13:34:04;;;;;;;22.40;20.20;;;;;;;;;;5115719;27;20024;-70
2023/05/14 13:36:31;;;;;;;24.85;22.40;;;;;;;;;;5131296;27;20143;-69
2023/05/14 13:38:57;;;;;;;24.17;21.05;;;;;;;;;;5114477;27;20047;-68
2023/05/14 13:41:23;;;;;;;23.48;21.13;;;;;;;;;;5113715;27;20433;-68
2023/05/14 13:43:49;;;;;;;24.23;21.58;;;;;;;;;;5118803;27;20085;-65
2023/05/14 13:46:15;;;;;;;23.63;20.88;;;;;;;;;;5129268;27;20118;-68
2023/05/14 13:48:41;;;;;;;23.50;20.40;;;;;;;;;;5116310;27;20563;-64
2023/05/14 13:51:07;;;;;;;23.55;21.08;;;;;;;;;;5115286;27;20027;-62
2023/05/14 13:53:32;;;;;;;24.77;22.23;;;;;;;;;;5120469;27;20027;-69
2023/05/14 13:56:00;;;;;;;24.08;21.67;;;;;;;;;;5127000;27;20026;-63
2023/05/14 13:58:26;;;;;;;23.95;21.55;;;;;;;;;;5118329;27;20107;-65
2023/05/14 14:00:53;;;;;;;25.35;22.25;;;;;;;;;;5116423;27;20571;-62
2023/05/14 14:03:19;;;;;;;23.27;21.02;;;;;;;;;;5113276;28;20028;-63
2023/05/14 14:05:45;;;;;;;24.38;21.98;;;;;;;;;;5113734;27;20490;-63
2023/05/14 14:08:11;;;;;;;22.55;20.17;;;;;;;;;;5112887;28;20541;-70
2023/05/14 14:10:39;;;;;;;25.15;21.20;;;;;;;;;;5113001;28;20471;-63
2023/05/14 14:13:06;;;;;;;23.08;20.85;;;;;;;;;;5111979;28;20547;-70